KWRB/WRB METAR and TAF weather

Enter ICAO airport designator
Station Type Date Time Source
KWRB METAR 2020/03/31 05:56 UTC NOAA

KWRB 310556Z 00000KT 10SM FEW210 16/13 A2990 RMK AO2A SLP126 T01570130 10208 20151 57033 $


Station Type Date Time Source
KWRB Decoded METAR 2020/03/31 05:56 UTC NOAA

Warner Robins Air Force Base, GA, United States (KWRB) 32-38N 083-36W
Mar 31, 2020 - 01:56 AM EDT / 2020.03.31 0556 UTC
Wind: Calm:0
Visibility: 10 mile(s):0
Sky conditions: mostly clear
Temperature: 60.3 F (15.7 C)
Dew Point: 55.4 F (13.0 C)
Relative Humidity: 83%
Pressure (altimeter): 29.9 in. Hg (1012 hPa)
Pressure tendency: 0.10 inches (3.3 hPa) lower than three hours ago
ob: KWRB 310556Z 00000KT 10SM FEW210 16/13 A2990 RMK AO2A SLP126 T01570130 10208 20151 57033
cycle: 6

Station Type Date Time Source
KWRB TAF 2020/03/31 05:03 UTC NOAA

TAF KWRB 310500Z 3105/0111 VRB06KT 9999 SCT200 QNH2985INS
BECMG 3114/3115 14010KT 9999 FEW040 510063 QNH2977INS
BECMG 3116/3117 14010G15KT 6000 -SHRA BKN030 510063 QNH2977INS
TEMPO 3117/3121 21020G30KT 3200 TSRA BKN008CB
BECMG 3120/3121 30012KT 4800 -SHRA BKN010 510043 QNH2958INS
BECMG 0105/0106 32009KT 9999 NSW FEW020 510063 QNH2979INS TX22/3117Z TN07/0111Z

Example: see airport list